createdAt,value
2019-04-21T00:01:44.162Z,7.50
2019-04-21T00:04:24.769Z,9.03
2019-04-21T00:07:03.283Z,9.40
2019-04-21T00:12:04.261Z,6.25
2019-04-21T00:14:27.517Z,7.47
2019-04-21T00:16:55.569Z,5.33
2019-04-21T00:19:36.662Z,10.15
2019-04-21T00:22:14.905Z,8.73
2019-04-21T00:24:51.888Z,6.12
2019-04-21T00:27:24.569Z,11.03
2019-04-21T00:29:58.787Z,9.75
2019-04-21T00:32:21.851Z,5.55
2019-04-21T00:34:43.263Z,5.03
2019-04-21T00:37:20.791Z,5.97
2019-04-21T00:40:06.169Z,5.03
2019-04-21T00:42:30.231Z,8.28
2019-04-21T00:45:00.527Z,8.68
2019-04-21T00:47:34.210Z,6.62
2019-04-21T00:50:07.489Z,5.45
2019-04-21T00:53:02.266Z,4.85
2019-04-21T00:55:44.367Z,4.25
2019-04-21T00:58:18.358Z,5.42
2019-04-21T01:00:46.470Z,9.08
2019-04-21T01:03:23.046Z,5.42
2019-04-21T01:05:51.476Z,8.13
2019-04-21T01:08:19.997Z,4.80
2019-04-21T01:10:38.367Z,9.55
2019-04-21T01:13:23.402Z,5.17
2019-04-21T01:15:55.789Z,3.55
2019-04-21T01:18:20.640Z,4.40
2019-04-21T01:20:33.129Z,4.85
2019-04-21T01:23:02.390Z,4.17
2019-04-21T01:25:38.166Z,7.75
2019-04-21T01:28:21.365Z,5.67
2019-04-21T01:30:55.381Z,5.25
2019-04-21T01:33:27.600Z,5.33
2019-04-21T01:35:55.487Z,4.42
2019-04-21T01:38:32.783Z,4.75
2019-04-21T01:40:59.402Z,4.87
2019-04-21T01:43:27.754Z,5.35
2019-04-21T01:45:59.638Z,6.90
2019-04-21T01:48:26.724Z,8.40
2019-04-21T01:50:57.756Z,4.08
2019-04-21T01:53:43.506Z,6.70
2019-04-21T01:56:24.103Z,5.85
2019-04-21T01:58:48.263Z,10.78
2019-04-21T02:01:30.118Z,8.18
2019-04-21T02:04:22.732Z,5.75
2019-04-21T02:06:44.613Z,4.65
2019-04-21T02:08:57.955Z,7.80
2019-04-21T02:11:40.856Z,7.97
2019-04-21T02:14:10.196Z,4.20
2019-04-21T02:16:34.533Z,7.08
2019-04-21T02:19:04.427Z,8.60
2019-04-21T02:21:31.974Z,5.45
2019-04-21T02:24:16.983Z,5.15
2019-04-21T02:26:41.566Z,5.62
2019-04-21T02:29:18.984Z,6.47
2019-04-21T02:31:55.425Z,5.17
2019-04-21T02:34:13.475Z,6.08
2019-04-21T02:37:14.771Z,5.12
2019-04-21T02:39:29.511Z,7.55
2019-04-21T02:41:55.715Z,6.72
2019-04-21T02:44:30.163Z,7.47
2019-04-21T02:46:46.688Z,5.83
2019-04-21T02:49:37.765Z,5.47
2019-04-21T02:52:03.407Z,14.98
2019-04-21T02:54:47.987Z,8.10
2019-04-21T02:57:08.961Z,5.40
2019-04-21T03:02:43.382Z,11.70
2019-04-21T03:05:20.331Z,5.05
2019-04-21T03:07:50.270Z,5.22
2019-04-21T03:10:17.825Z,6.30
2019-04-21T03:12:45.861Z,7.37
2019-04-21T03:15:21.312Z,6.70
2019-04-21T03:18:04.707Z,11.55
2019-04-21T03:22:53.165Z,4.78
2019-04-21T03:25:33.693Z,5.60
2019-04-21T03:30:53.163Z,6.42
2019-04-21T03:33:23.800Z,5.28
2019-04-21T03:38:06.186Z,4.92
2019-04-21T03:40:26.209Z,6.00
2019-04-21T03:48:01.221Z,4.62
2019-04-21T03:53:11.177Z,7.10
2019-04-21T03:58:16.955Z,4.00
2019-04-21T04:06:28.055Z,4.60
2019-04-21T04:09:09.658Z,3.22
2019-04-21T04:11:38.180Z,4.15
2019-04-21T04:14:04.087Z,4.90
2019-04-21T04:16:38.025Z,8.78
2019-04-21T04:19:01.599Z,4.05
2019-04-21T04:24:05.350Z,8.15
2019-04-21T04:29:19.935Z,5.47
2019-04-21T04:31:41.630Z,11.30
2019-04-21T04:36:59.315Z,9.98
2019-04-21T04:42:25.678Z,10.28
2019-04-21T04:47:17.634Z,13.83
2019-04-21T04:52:31.264Z,11.33
2019-04-21T04:54:55.143Z,15.43
2019-04-21T05:00:01.212Z,7.53
2019-04-21T05:02:30.488Z,7.90
2019-04-21T05:10:07.546Z,12.65
2019-04-21T05:12:25.412Z,7.50
2019-04-21T05:15:04.523Z,11.83
2019-04-21T05:24:51.224Z,8.13
2019-04-21T05:27:39.947Z,7.90
2019-04-21T05:30:29.070Z,11.00
2019-04-21T05:33:19.250Z,9.20
2019-04-21T05:35:53.060Z,8.68
2019-04-21T05:38:30.359Z,12.53
2019-04-21T05:40:55.160Z,17.75
2019-04-21T05:43:32.829Z,8.45
2019-04-21T05:46:04.702Z,9.43
2019-04-21T05:48:39.505Z,13.22
2019-04-21T05:51:03.760Z,15.08
2019-04-21T05:53:42.717Z,10.05
2019-04-21T05:56:16.046Z,8.18
2019-04-21T05:58:43.741Z,11.10
2019-04-21T06:01:24.317Z,11.00
2019-04-21T06:03:53.178Z,10.32
2019-04-21T06:06:27.541Z,11.15
2019-04-21T06:08:52.628Z,9.25
2019-04-21T06:11:28.995Z,8.18
2019-04-21T06:14:04.170Z,6.97
2019-04-21T06:16:36.425Z,12.97
2019-04-21T06:19:04.723Z,8.37
2019-04-21T06:21:35.725Z,10.77
2019-04-21T06:24:13.404Z,11.80
2019-04-21T06:29:08.670Z,10.03
2019-04-21T06:32:18.749Z,11.00
2019-04-21T06:34:19.861Z,11.33
2019-04-21T06:37:32.197Z,9.70
2019-04-21T06:39:56.313Z,9.80
2019-04-21T06:42:14.773Z,10.93
2019-04-21T06:44:55.421Z,14.57
2019-04-21T06:47:24.670Z,13.33
2019-04-21T06:49:52.425Z,17.60
2019-04-21T06:52:44.216Z,19.50
2019-04-21T06:54:54.952Z,24.07
2019-04-21T06:59:59.968Z,25.80
2019-04-21T07:05:09.051Z,26.17
2019-04-21T07:07:40.536Z,27.10
2019-04-21T07:10:16.877Z,37.00
2019-04-21T07:12:39.432Z,27.33
2019-04-21T07:15:22.307Z,32.50
2019-04-21T07:17:45.581Z,34.17
2019-04-21T07:20:22.004Z,35.60
2019-04-21T07:22:56.855Z,36.43
2019-04-21T07:25:28.586Z,35.17
2019-04-21T07:27:56.700Z,26.30
2019-04-21T07:30:31.737Z,38.27
2019-04-21T07:33:07.204Z,28.40
2019-04-21T07:35:31.790Z,29.17
2019-04-21T07:37:59.126Z,27.43
2019-04-21T07:40:29.064Z,26.57
2019-04-21T07:43:02.730Z,32.43
2019-04-21T07:45:32.163Z,31.70
2019-04-21T07:48:13.785Z,30.17
2019-04-21T07:51:02.261Z,33.63
2019-04-21T07:53:40.660Z,28.67
2019-04-21T07:55:51.137Z,32.77
2019-04-21T07:58:47.595Z,32.73
2019-04-21T08:03:47.845Z,21.73
2019-04-21T08:06:12.826Z,31.20
2019-04-21T08:08:48.931Z,21.20
2019-04-21T08:11:22.437Z,18.53
2019-04-21T08:13:55.067Z,27.23
2019-04-21T08:16:25.413Z,22.67
2019-04-21T08:18:59.781Z,20.17
2019-04-21T08:21:27.947Z,19.47
2019-04-21T08:23:55.213Z,24.40
2019-04-21T08:26:35.996Z,15.03
2019-04-21T08:29:12.669Z,17.50
2019-04-21T08:31:38.754Z,17.60
2019-04-21T08:34:08.362Z,15.07
2019-04-21T08:36:35.306Z,14.43
2019-04-21T08:39:08.774Z,14.10
2019-04-21T08:41:41.106Z,12.37
2019-04-21T08:44:20.572Z,14.13
2019-04-21T08:46:52.828Z,13.20
2019-04-21T08:49:22.155Z,13.13
2019-04-21T08:52:04.053Z,10.87
2019-04-21T08:57:08.161Z,16.77
2019-04-21T09:00:01.353Z,15.40
2019-04-21T09:02:35.285Z,9.90
2019-04-21T09:05:04.781Z,11.00
2019-04-21T09:07:39.428Z,10.13
2019-04-21T09:10:09.703Z,8.90
2019-04-21T09:12:43.281Z,15.23
2019-04-21T09:15:14.387Z,9.50
2019-04-21T09:17:39.199Z,8.50
2019-04-21T09:20:17.031Z,13.47
2019-04-21T09:22:50.545Z,21.57
2019-04-21T09:25:19.691Z,15.77
2019-04-21T09:27:47.119Z,14.73
2019-04-21T09:30:04.915Z,13.40
2019-04-21T09:32:38.518Z,12.97
2019-04-21T09:35:12.465Z,10.27
2019-04-21T09:37:49.405Z,8.60
2019-04-21T09:40:13.502Z,9.20
2019-04-21T09:42:53.260Z,10.03
2019-04-21T09:45:15.652Z,12.90
2019-04-21T09:47:55.638Z,9.70
2019-04-21T09:50:17.410Z,8.37
2019-04-21T09:52:52.834Z,8.50
2019-04-21T09:55:22.537Z,6.83
2019-04-21T09:57:55.045Z,6.07
2019-04-21T10:00:25.365Z,7.20
2019-04-21T10:03:00.821Z,6.83
2019-04-21T10:05:25.114Z,7.30
2019-04-21T10:07:57.503Z,4.30
2019-04-21T10:10:27.575Z,3.90
2019-04-21T10:13:00.626Z,6.83
2019-04-21T10:15:30.073Z,3.27
2019-04-21T10:18:03.096Z,4.60
2019-04-21T10:20:32.907Z,4.70
2019-04-21T10:23:02.918Z,3.67
2019-04-21T10:25:32.482Z,5.73
2019-04-21T10:28:03.344Z,3.10
2019-04-21T10:30:32.976Z,7.40
2019-04-21T10:33:02.519Z,3.00
2019-04-21T10:35:32.875Z,7.07
2019-04-21T10:38:16.965Z,4.50
2019-04-21T10:40:37.227Z,3.53
2019-04-21T10:43:09.074Z,4.40
2019-04-21T10:45:37.266Z,4.00
2019-04-21T10:48:12.773Z,3.87
2019-04-21T10:50:45.359Z,3.57
2019-04-21T10:53:23.010Z,3.47
2019-04-21T10:56:03.188Z,2.50
2019-04-21T10:58:32.157Z,2.93
2019-04-21T11:01:10.591Z,3.60
2019-04-21T11:04:02.705Z,3.20
2019-04-21T11:06:32.668Z,4.60
2019-04-21T11:09:03.689Z,4.63
2019-04-21T11:11:34.157Z,3.80
2019-04-21T11:14:06.960Z,3.50
2019-04-21T11:16:39.209Z,2.57
2019-04-21T11:19:10.116Z,3.40
2019-04-21T11:21:40.777Z,3.00
2019-04-21T11:24:10.289Z,3.70
2019-04-21T11:26:40.117Z,4.63
2019-04-21T11:29:10.670Z,3.10
2019-04-21T11:31:41.348Z,2.00
2019-04-21T11:34:11.326Z,2.60
2019-04-21T11:36:43.920Z,3.07
2019-04-21T11:39:31.610Z,3.10
2019-04-21T11:41:52.317Z,3.13
2019-04-21T11:44:24.262Z,3.87
2019-04-21T11:46:54.381Z,3.40
2019-04-21T11:49:24.233Z,3.70
2019-04-21T11:51:56.489Z,3.10
2019-04-21T11:54:26.744Z,3.90
2019-04-21T11:56:56.963Z,3.27
2019-04-21T11:59:26.407Z,2.40
2019-04-21T12:01:57.288Z,4.10
2019-04-21T12:04:27.527Z,2.30
2019-04-21T12:06:57.904Z,2.40
2019-04-21T12:09:27.391Z,2.13
2019-04-21T12:11:57.046Z,2.87
2019-04-21T12:14:26.373Z,3.47
2019-04-21T12:16:55.696Z,3.00
2019-04-21T12:19:27.085Z,3.07
2019-04-21T12:22:05.327Z,4.57
2019-04-21T12:24:31.289Z,2.30
2019-04-21T12:27:00.163Z,2.73
2019-04-21T12:29:30.701Z,2.20
2019-04-21T12:32:17.994Z,3.80
2019-04-21T12:34:50.501Z,2.10
2019-04-21T12:37:19.260Z,4.00
2019-04-21T12:39:48.739Z,3.00
2019-04-21T12:42:18.589Z,2.63
2019-04-21T12:44:49.452Z,2.10
2019-04-21T12:47:19.649Z,2.10
2019-04-21T12:49:49.840Z,2.77
2019-04-21T12:52:19.872Z,3.57
2019-04-21T12:54:49.301Z,3.20
2019-04-21T12:57:19.226Z,2.10
2019-04-21T12:59:48.771Z,2.43
2019-04-21T13:02:17.928Z,2.70
2019-04-21T13:04:49.232Z,4.03
2019-04-21T13:07:19.344Z,2.50
2019-04-21T13:09:48.682Z,2.70
2019-04-21T13:12:19.282Z,3.90
2019-04-21T13:14:49.611Z,3.40
2019-04-21T13:17:19.478Z,3.90
2019-04-21T13:19:49.534Z,2.93
2019-04-21T13:22:19.089Z,3.70
2019-04-21T13:24:49.625Z,2.87
2019-04-21T13:27:22.636Z,4.93
2019-04-21T13:29:52.776Z,2.37
2019-04-21T13:32:21.987Z,2.33
2019-04-21T13:34:52.668Z,2.30
2019-04-21T13:37:23.574Z,2.60
2019-04-21T13:40:38.879Z,2.77
2019-04-21T13:42:55.086Z,2.33
2019-04-21T13:45:23.994Z,2.57
2019-04-21T13:47:56.738Z,2.47
2019-04-21T13:50:26.446Z,4.00
2019-04-21T13:52:56.917Z,3.97
2019-04-21T13:55:27.566Z,3.10
2019-04-21T13:57:58.826Z,2.63
2019-04-21T14:00:29.728Z,2.47
2019-04-21T14:03:00.724Z,2.77
2019-04-21T14:05:30.683Z,2.67
2019-04-21T14:08:03.147Z,1.93
2019-04-21T14:10:33.564Z,2.57
2019-04-21T14:13:04.550Z,3.77
2019-04-21T14:15:35.698Z,10.70
2019-04-21T14:18:06.850Z,2.83
2019-04-21T14:20:37.436Z,2.37
2019-04-21T14:23:17.191Z,2.60
2019-04-21T14:25:39.325Z,1.93
2019-04-21T14:28:12.234Z,1.93
2019-04-21T14:30:41.455Z,2.37
2019-04-21T14:33:11.999Z,2.23
2019-04-21T14:35:43.068Z,2.13
2019-04-21T14:38:14.387Z,2.03
2019-04-21T14:40:44.106Z,2.40
2019-04-21T14:43:14.273Z,2.93
2019-04-21T14:46:06.438Z,3.50
2019-04-21T14:49:03.543Z,5.83
2019-04-21T14:52:07.285Z,3.60
2019-04-21T14:55:00.508Z,1.87
2019-04-21T14:57:31.542Z,2.50
2019-04-21T15:00:03.036Z,2.43
2019-04-21T15:02:33.915Z,2.10
2019-04-21T15:05:04.014Z,6.47
2019-04-21T15:07:33.353Z,2.60
2019-04-21T15:10:13.275Z,4.13
2019-04-21T15:12:36.099Z,3.10
2019-04-21T15:15:06.029Z,2.83
2019-04-21T15:17:35.907Z,4.03
2019-04-21T15:20:11.155Z,2.40
2019-04-21T15:22:38.582Z,3.37
2019-04-21T15:25:10.031Z,2.13
2019-04-21T15:27:41.163Z,2.50
2019-04-21T15:30:12.745Z,1.87
2019-04-21T15:32:42.303Z,2.37
2019-04-21T15:35:13.167Z,4.03
2019-04-21T15:37:44.172Z,2.10
2019-04-21T15:40:25.118Z,2.20
2019-04-21T15:42:46.486Z,2.30
2019-04-21T15:45:16.780Z,5.10
2019-04-21T15:47:47.587Z,2.83
2019-04-21T15:50:19.445Z,2.57
2019-04-21T15:52:49.710Z,3.00
2019-04-21T15:55:39.027Z,3.37
2019-04-21T15:58:16.437Z,1.90
2019-04-21T16:01:12.285Z,3.77
2019-04-21T16:03:42.861Z,2.57
2019-04-21T16:06:15.345Z,2.20
2019-04-21T16:08:47.559Z,1.60
2019-04-21T16:11:15.751Z,2.67
2019-04-21T16:13:45.859Z,2.27
2019-04-21T16:16:16.762Z,2.20
2019-04-21T16:18:46.107Z,2.23
2019-04-21T16:21:15.946Z,1.90
2019-04-21T16:23:46.532Z,4.90
2019-04-21T16:26:17.044Z,3.50
2019-04-21T16:28:46.915Z,2.40
2019-04-21T16:31:16.441Z,2.70
2019-04-21T16:33:47.134Z,3.40
2019-04-21T16:36:18.112Z,2.30
2019-04-21T16:38:49.274Z,2.80
2019-04-21T16:41:20.230Z,2.10
2019-04-21T16:43:51.400Z,1.97
2019-04-21T16:46:21.101Z,1.90
2019-04-21T16:48:51.649Z,2.33
2019-04-21T16:51:24.560Z,2.93
2019-04-21T16:54:04.410Z,3.50
2019-04-21T16:56:51.921Z,2.37
2019-04-21T16:59:32.712Z,2.77
2019-04-21T17:02:05.041Z,2.53
2019-04-21T17:04:36.292Z,1.93
2019-04-21T17:07:07.472Z,2.40
2019-04-21T17:09:38.834Z,3.43
2019-04-21T17:12:11.932Z,2.07
2019-04-21T17:14:53.169Z,2.30
2019-04-21T17:17:37.252Z,3.90
2019-04-21T17:19:49.921Z,3.07
2019-04-21T17:22:17.671Z,3.30
2019-04-21T17:24:48.420Z,4.07
2019-04-21T17:27:18.032Z,3.20
2019-04-21T17:29:48.689Z,4.00
2019-04-21T17:32:18.435Z,2.40
2019-04-21T17:34:47.972Z,1.83
2019-04-21T17:37:20.066Z,2.00
2019-04-21T17:39:49.187Z,2.27
2019-04-21T17:42:26.556Z,2.27
2019-04-21T17:44:49.363Z,2.50
2019-04-21T17:47:28.903Z,2.60
2019-04-21T17:50:11.599Z,5.10
2019-04-21T17:52:55.624Z,2.90
2019-04-21T17:55:29.407Z,2.10
2019-04-21T17:58:11.586Z,2.83
2019-04-21T18:03:34.993Z,2.00
2019-04-21T18:05:50.534Z,2.43
2019-04-21T18:08:22.891Z,1.80
2019-04-21T18:10:52.821Z,1.80
2019-04-21T18:13:12.010Z,2.67
2019-04-21T18:15:53.509Z,2.53
2019-04-21T18:18:10.330Z,3.43
2019-04-21T18:20:41.972Z,2.80
2019-04-21T18:23:46.957Z,2.40
2019-04-21T18:26:23.275Z,2.60
2019-04-21T18:28:40.917Z,3.97
2019-04-21T18:31:14.714Z,3.23
2019-04-21T18:34:01.400Z,1.70
2019-04-21T18:36:49.859Z,3.40
2019-04-21T18:39:52.702Z,2.43
2019-04-21T18:42:32.778Z,2.57
2019-04-21T18:45:55.299Z,3.37
2019-04-21T18:48:21.840Z,1.93
2019-04-21T18:50:57.306Z,2.20
2019-04-21T18:53:44.978Z,2.20
2019-04-21T18:56:05.266Z,2.20
2019-04-21T18:58:30.815Z,5.10
2019-04-21T19:01:07.573Z,2.30
2019-04-21T19:03:38.877Z,2.47
2019-04-21T19:06:10.812Z,3.13
2019-04-21T19:08:53.333Z,2.53
2019-04-21T19:11:23.999Z,2.43
2019-04-21T19:14:30.377Z,1.93
2019-04-21T19:16:49.610Z,1.80
2019-04-21T19:21:50.421Z,3.07
2019-04-21T19:24:24.287Z,2.53
2019-04-21T19:27:08.058Z,1.93
2019-04-21T19:32:11.925Z,2.43
2019-04-21T19:34:14.433Z,2.50
2019-04-21T19:36:37.092Z,2.33
2019-04-21T19:39:17.353Z,2.87
2019-04-21T19:41:57.678Z,5.63
2019-04-21T19:44:32.333Z,2.27
2019-04-21T19:47:06.564Z,2.53
2019-04-21T19:49:39.889Z,3.10
2019-04-21T19:51:54.053Z,3.17
2019-04-21T19:54:25.234Z,2.60
2019-04-21T19:56:47.276Z,4.37
2019-04-21T19:59:22.068Z,3.00
2019-04-21T20:01:49.988Z,3.50
2019-04-21T20:04:18.332Z,4.03
2019-04-21T20:07:01.143Z,3.07
2019-04-21T20:09:38.060Z,2.17
2019-04-21T20:12:03.730Z,4.20
2019-04-21T20:17:05.903Z,2.57
2019-04-21T20:19:24.392Z,2.20
2019-04-21T20:21:53.924Z,2.57
2019-04-21T20:24:28.007Z,3.30
2019-04-21T20:27:02.222Z,3.83
2019-04-21T20:29:44.496Z,3.67
2019-04-21T20:32:20.079Z,6.23
2019-04-21T20:34:47.692Z,2.87
2019-04-21T20:37:14.503Z,3.00
2019-04-21T20:39:41.841Z,2.20
2019-04-21T20:42:19.425Z,4.00
2019-04-21T20:44:54.294Z,2.60
2019-04-21T20:47:11.231Z,4.60
2019-04-21T20:49:43.209Z,3.57
2019-04-21T20:52:24.328Z,2.60
2019-04-21T20:54:48.119Z,2.30
2019-04-21T20:57:21.933Z,3.33
2019-04-21T20:59:50.887Z,3.43
2019-04-21T21:02:30.041Z,4.40
2019-04-21T21:04:45.758Z,3.57
2019-04-21T21:07:41.606Z,3.60
2019-04-21T21:10:00.362Z,4.70
2019-04-21T21:12:40.749Z,3.73
2019-04-21T21:14:55.485Z,3.70
2019-04-21T21:20:07.875Z,2.90
2019-04-21T21:22:29.404Z,4.23
2019-04-21T21:25:03.885Z,4.27
2019-04-21T21:27:32.157Z,4.83
2019-04-21T21:30:05.611Z,3.30
2019-04-21T21:32:37.328Z,2.90
2019-04-21T21:35:10.881Z,3.57
2019-04-21T21:37:42.081Z,4.93
2019-04-21T21:40:14.307Z,8.30
2019-04-21T21:42:30.527Z,3.83
2019-04-21T21:45:04.164Z,2.40
2019-04-21T21:47:46.326Z,4.87
2019-04-21T21:50:07.652Z,4.60
2019-04-21T21:52:39.879Z,4.37
2019-04-21T21:54:59.044Z,3.40
2019-04-21T21:57:28.630Z,4.33
2019-04-21T22:03:12.022Z,4.20
2019-04-21T22:05:42.101Z,3.70
2019-04-21T22:08:02.526Z,4.70
2019-04-21T22:10:31.746Z,5.10
2019-04-21T22:13:08.322Z,6.50
2019-04-21T22:15:33.788Z,7.03
2019-04-21T22:18:27.347Z,6.67
2019-04-21T22:20:55.101Z,4.97
2019-04-21T22:23:11.380Z,4.72
2019-04-21T22:25:39.913Z,5.10
2019-04-21T22:28:07.869Z,4.90
2019-04-21T22:30:43.851Z,5.80
2019-04-21T22:33:10.823Z,3.90
2019-04-21T22:35:46.308Z,3.93
2019-04-21T22:38:24.641Z,4.17
2019-04-21T22:40:55.246Z,5.00
2019-04-21T22:43:21.649Z,5.43
2019-04-21T22:45:45.238Z,4.45
2019-04-21T22:48:18.249Z,5.85
2019-04-21T22:50:46.598Z,4.27
2019-04-21T22:53:17.898Z,6.55
2019-04-21T22:55:49.618Z,3.98
2019-04-21T22:58:25.712Z,4.70
2019-04-21T23:00:54.995Z,5.97
2019-04-21T23:03:24.757Z,4.85
2019-04-21T23:05:53.695Z,3.62
2019-04-21T23:08:31.794Z,4.10
2019-04-21T23:11:00.822Z,5.50
2019-04-21T23:13:25.970Z,8.53
2019-04-21T23:15:58.792Z,5.40
2019-04-21T23:18:42.931Z,5.80
2019-04-21T23:21:13.558Z,4.47
2019-04-21T23:23:51.652Z,9.65
2019-04-21T23:26:23.444Z,3.70
2019-04-21T23:28:51.100Z,4.03
2019-04-21T23:31:26.767Z,5.10
2019-04-21T23:33:36.703Z,7.22
2019-04-21T23:36:12.975Z,4.00
2019-04-21T23:38:43.950Z,4.75
2019-04-21T23:41:11.077Z,5.55
2019-04-21T23:43:40.408Z,4.15
2019-04-21T23:46:19.832Z,4.15
2019-04-21T23:48:57.905Z,5.12
2019-04-21T23:51:25.895Z,4.87
2019-04-21T23:53:43.657Z,5.58
2019-04-21T23:56:20.256Z,4.08
2019-04-21T23:58:52.968Z,6.03
